createdAt,value
2022-10-29T00:00:24.694Z,91.70
2022-10-29T00:02:51.816Z,91.70
2022-10-29T00:05:19.013Z,91.80
2022-10-29T00:07:46.149Z,91.50
2022-10-29T00:10:13.330Z,91.60
2022-10-29T00:12:40.473Z,91.60
2022-10-29T00:15:11.202Z,91.60
2022-10-29T00:17:38.317Z,91.50
2022-10-29T00:20:06.025Z,91.50
2022-10-29T00:22:33.155Z,91.50
2022-10-29T00:25:00.500Z,91.40
2022-10-29T00:27:27.724Z,91.40
2022-10-29T00:29:55.779Z,91.40
2022-10-29T00:32:23.119Z,91.30
2022-10-29T00:34:50.235Z,91.30
2022-10-29T00:37:17.326Z,91.30
2022-10-29T00:39:44.418Z,91.30
2022-10-29T00:42:16.267Z,91.10
2022-10-29T00:44:44.090Z,91.10
2022-10-29T00:47:27.775Z,91.00
2022-10-29T00:50:02.513Z,91.00
2022-10-29T00:52:32.523Z,90.90
2022-10-29T00:55:03.080Z,90.90
2022-10-29T00:57:48.795Z,90.80
2022-10-29T01:00:17.438Z,90.80
2022-10-29T01:02:45.900Z,90.60
2022-10-29T01:05:18.753Z,90.60
2022-10-29T01:07:46.526Z,90.70
2022-10-29T01:10:15.590Z,90.70
2022-10-29T01:13:14.627Z,90.70
2022-10-29T01:16:01.188Z,90.50
2022-10-29T01:18:44.302Z,90.60
2022-10-29T01:21:35.392Z,90.50
2022-10-29T01:24:26.929Z,90.50
2022-10-29T01:27:20.389Z,90.30
2022-10-29T01:30:02.234Z,90.20
2022-10-29T01:33:07.430Z,90.30
2022-10-29T01:35:55.953Z,90.40
2022-10-29T01:38:44.976Z,90.30
2022-10-29T01:41:27.532Z,90.30
2022-10-29T01:44:05.212Z,90.10
2022-10-29T01:46:56.410Z,90.00
2022-10-29T01:49:33.441Z,89.80
2022-10-29T01:52:03.895Z,89.90
2022-10-29T01:54:31.242Z,89.70
2022-10-29T01:57:00.139Z,89.70
2022-10-29T01:59:36.081Z,90.00
2022-10-29T02:02:48.125Z,90.00
2022-10-29T02:05:27.578Z,89.50
2022-10-29T02:08:05.080Z,89.10
2022-10-29T02:10:47.822Z,89.30
2022-10-29T02:13:17.590Z,89.20
2022-10-29T02:15:53.072Z,89.40
2022-10-29T02:18:20.582Z,89.70
2022-10-29T02:20:47.919Z,89.50
2022-10-29T02:23:16.583Z,89.50
2022-10-29T02:25:43.945Z,89.50
2022-10-29T02:28:11.200Z,89.30
2022-10-29T02:30:38.344Z,89.10
2022-10-29T02:33:05.468Z,88.60
2022-10-29T02:35:32.701Z,88.80
2022-10-29T02:37:59.790Z,88.80
2022-10-29T02:40:26.955Z,88.90
2022-10-29T02:42:54.778Z,88.80
2022-10-29T02:45:22.099Z,88.70
2022-10-29T02:47:49.184Z,88.40
2022-10-29T02:50:16.644Z,88.70
2022-10-29T02:52:43.761Z,88.30
2022-10-29T02:55:10.863Z,88.40
2022-10-29T02:57:37.993Z,88.50
2022-10-29T03:00:05.916Z,88.50
2022-10-29T03:02:33.131Z,88.70
2022-10-29T03:05:00.282Z,88.70
2022-10-29T03:07:27.424Z,88.60
2022-10-29T03:09:54.648Z,88.80
2022-10-29T03:12:21.817Z,88.80
2022-10-29T03:14:48.872Z,88.20
2022-10-29T03:17:15.952Z,88.10
2022-10-29T03:19:43.064Z,88.30
2022-10-29T03:22:10.113Z,88.00
2022-10-29T03:24:37.226Z,88.10
2022-10-29T03:27:04.407Z,88.20
2022-10-29T03:29:31.592Z,88.50
2022-10-29T03:31:58.738Z,88.00
2022-10-29T03:34:25.951Z,87.90
2022-10-29T03:36:53.033Z,87.80
2022-10-29T03:39:20.097Z,88.00
2022-10-29T03:41:47.224Z,87.80
2022-10-29T03:44:14.368Z,87.80
2022-10-29T03:46:41.491Z,88.40
2022-10-29T03:49:08.577Z,87.80
2022-10-29T03:51:35.657Z,87.90
2022-10-29T03:54:02.813Z,87.60
2022-10-29T03:56:29.893Z,87.80
2022-10-29T03:58:57.011Z,87.60
2022-10-29T04:01:24.442Z,87.70
2022-10-29T04:03:51.712Z,87.50
2022-10-29T04:06:18.830Z,87.50
2022-10-29T04:08:46.001Z,87.60
2022-10-29T04:11:14.073Z,87.50
2022-10-29T04:13:41.378Z,87.30
2022-10-29T04:16:08.635Z,87.50
2022-10-29T04:18:35.827Z,87.40
2022-10-29T04:29:25.203Z,87.10
2022-10-29T04:31:52.578Z,87.10
2022-10-29T04:34:19.879Z,86.80
2022-10-29T04:36:47.010Z,87.00
2022-10-29T04:39:15.423Z,86.90
2022-10-29T04:41:44.259Z,87.00
2022-10-29T04:44:11.317Z,87.00
2022-10-29T04:46:38.412Z,86.80
2022-10-29T04:49:05.566Z,87.20
2022-10-29T04:51:32.729Z,86.90
2022-10-29T04:54:02.917Z,87.00
2022-10-29T04:56:31.035Z,86.80
2022-10-29T04:58:58.106Z,86.80
2022-10-29T05:01:25.319Z,86.50
2022-10-29T05:03:55.619Z,86.50
2022-10-29T05:06:26.048Z,86.60
2022-10-29T05:08:53.274Z,86.40
2022-10-29T05:11:20.468Z,86.70
2022-10-29T05:13:47.589Z,86.50
2022-10-29T05:16:14.685Z,86.40
2022-10-29T05:18:41.858Z,86.50
2022-10-29T05:21:08.988Z,86.40
2022-10-29T05:23:37.451Z,86.40
2022-10-29T05:26:04.758Z,86.20
2022-10-29T05:28:31.836Z,86.30
2022-10-29T05:31:04.259Z,86.40
2022-10-29T05:33:34.190Z,86.50
2022-10-29T05:36:01.532Z,86.40
2022-10-29T05:38:28.774Z,86.70
2022-10-29T05:40:58.712Z,86.70
2022-10-29T05:43:26.047Z,86.50
2022-10-29T05:45:53.196Z,86.70
2022-10-29T05:48:20.412Z,86.60
2022-10-29T05:50:47.537Z,86.50
2022-10-29T05:53:15.429Z,86.40
2022-10-29T05:55:42.980Z,86.30
2022-10-29T05:58:12.533Z,86.60
2022-10-29T06:00:42.630Z,86.50
2022-10-29T06:03:16.766Z,86.40
2022-10-29T06:05:44.376Z,86.30
2022-10-29T06:08:11.583Z,86.20
2022-10-29T06:10:38.944Z,86.00
2022-10-29T06:13:20.778Z,86.20
2022-10-29T06:15:49.400Z,86.30
2022-10-29T06:18:16.959Z,86.10
2022-10-29T06:20:44.179Z,86.00
2022-10-29T06:23:11.901Z,86.10
2022-10-29T06:25:39.099Z,86.10
2022-10-29T06:28:09.299Z,86.10
2022-10-29T06:30:36.897Z,86.00
2022-10-29T06:33:05.363Z,85.90
2022-10-29T06:38:11.007Z,86.20
2022-10-29T06:40:39.861Z,86.10
2022-10-29T06:43:12.739Z,86.10
2022-10-29T06:45:40.239Z,86.00
2022-10-29T06:48:07.732Z,86.00
2022-10-29T06:50:34.941Z,86.00
2022-10-29T06:53:06.688Z,86.00
2022-10-29T06:55:35.663Z,85.90
2022-10-29T06:58:10.627Z,85.90
2022-10-29T07:00:38.101Z,86.00
2022-10-29T07:03:05.677Z,86.20
2022-10-29T07:05:33.395Z,86.00
2022-10-29T07:08:01.470Z,86.10
2022-10-29T07:10:30.951Z,86.10
2022-10-29T07:12:58.613Z,85.90
2022-10-29T07:15:28.038Z,86.20
2022-10-29T07:18:06.371Z,86.20
2022-10-29T07:20:36.956Z,86.20
2022-10-29T07:23:04.135Z,86.40
2022-10-29T07:25:32.319Z,86.50
2022-10-29T07:28:16.528Z,86.50
2022-10-29T07:30:44.570Z,86.40
2022-10-29T07:33:13.089Z,86.60
2022-10-29T07:35:40.483Z,86.60
2022-10-29T07:38:11.120Z,86.70
2022-10-29T07:40:39.927Z,86.80
2022-10-29T07:43:07.743Z,86.80
2022-10-29T07:45:34.875Z,87.00
2022-10-29T07:48:04.862Z,86.90
2022-10-29T07:50:32.494Z,87.00
2022-10-29T07:53:00.734Z,87.00
2022-10-29T07:58:07.212Z,87.30
2022-10-29T08:00:39.271Z,87.30
2022-10-29T08:03:07.260Z,87.30
2022-10-29T08:05:34.692Z,87.50
2022-10-29T08:08:02.251Z,87.50
2022-10-29T08:10:30.786Z,87.60
2022-10-29T08:13:00.908Z,87.60
2022-10-29T08:15:30.719Z,87.70
2022-10-29T08:17:58.357Z,87.80
2022-10-29T08:20:27.444Z,87.80
2022-10-29T08:22:55.156Z,87.90
2022-10-29T08:25:22.637Z,88.00
2022-10-29T08:28:00.888Z,88.00
2022-10-29T08:30:28.588Z,88.20
2022-10-29T08:32:56.080Z,88.20
2022-10-29T08:35:23.441Z,88.10
2022-10-29T08:37:50.594Z,88.40
2022-10-29T08:40:29.933Z,88.30
2022-10-29T08:43:24.160Z,88.60
2022-10-29T08:45:54.825Z,88.80
2022-10-29T08:48:33.854Z,88.70
2022-10-29T08:51:37.809Z,88.90
2022-10-29T08:56:58.877Z,89.10
2022-10-29T08:59:29.711Z,89.50
2022-10-29T09:01:57.099Z,89.70
2022-10-29T09:04:25.672Z,89.70
2022-10-29T09:07:07.765Z,89.60
2022-10-29T09:10:06.825Z,89.50
2022-10-29T09:13:11.211Z,90.20
2022-10-29T09:15:59.500Z,90.40
2022-10-29T09:18:49.796Z,90.60
2022-10-29T09:21:56.214Z,90.60
2022-10-29T09:24:41.605Z,90.70
2022-10-29T09:27:25.181Z,91.20
2022-10-29T09:29:58.155Z,90.80
2022-10-29T09:32:47.661Z,90.90
2022-10-29T09:35:18.539Z,90.70
2022-10-29T09:37:54.678Z,90.90
2022-10-29T09:40:34.480Z,90.90
2022-10-29T09:43:21.516Z,90.70
2022-10-29T09:45:58.214Z,90.70
2022-10-29T09:48:40.800Z,90.90
2022-10-29T09:51:29.196Z,91.00
2022-10-29T09:53:56.286Z,90.90
2022-10-29T09:56:24.359Z,90.90
2022-10-29T09:59:22.023Z,90.90
2022-10-29T10:01:49.806Z,90.90
2022-10-29T10:04:41.494Z,91.00
2022-10-29T10:07:11.723Z,91.10
2022-10-29T10:10:06.355Z,90.70
2022-10-29T10:12:50.904Z,90.90
2022-10-29T10:15:31.664Z,90.80
2022-10-29T10:18:01.706Z,91.00
2022-10-29T10:20:39.653Z,90.90
2022-10-29T10:23:29.487Z,90.80
2022-10-29T10:26:02.327Z,90.90
2022-10-29T10:28:37.012Z,91.60
2022-10-29T10:31:04.335Z,91.30
2022-10-29T10:33:34.874Z,91.30
2022-10-29T10:36:06.517Z,91.30
2022-10-29T10:38:50.082Z,91.20
2022-10-29T10:41:27.564Z,91.10
2022-10-29T10:44:02.501Z,91.10
2022-10-29T10:46:43.428Z,91.10
2022-10-29T10:49:25.892Z,91.10
2022-10-29T10:51:55.007Z,91.10
2022-10-29T10:54:42.103Z,91.10
2022-10-29T10:57:12.491Z,91.20
2022-10-29T10:59:57.049Z,91.10
2022-10-29T11:02:43.029Z,91.30
2022-10-29T11:05:33.610Z,91.20
2022-10-29T11:08:21.549Z,91.30
2022-10-29T11:10:52.236Z,91.30
2022-10-29T11:13:24.592Z,91.30
2022-10-29T11:16:13.820Z,91.30
2022-10-29T11:19:04.427Z,91.40
2022-10-29T11:21:36.881Z,91.50
2022-10-29T11:24:18.208Z,91.40
2022-10-29T11:26:51.692Z,91.40
2022-10-29T11:29:36.837Z,91.40
2022-10-29T11:32:15.889Z,91.40
2022-10-29T11:35:04.686Z,91.70
2022-10-29T11:37:50.400Z,91.50
2022-10-29T11:40:23.641Z,91.70
2022-10-29T11:42:51.015Z,91.70
2022-10-29T11:45:28.278Z,91.70
2022-10-29T11:47:55.796Z,91.60
2022-10-29T11:50:43.921Z,91.60
2022-10-29T11:53:17.087Z,91.70
2022-10-29T11:55:49.872Z,91.80
2022-10-29T11:58:23.603Z,91.60
2022-10-29T12:01:01.758Z,91.70
2022-10-29T12:03:31.686Z,91.70
2022-10-29T12:06:34.410Z,91.80
2022-10-29T12:09:30.314Z,91.80
2022-10-29T12:12:09.731Z,92.10
2022-10-29T12:15:19.093Z,91.80
2022-10-29T12:18:08.873Z,91.80
2022-10-29T12:20:54.269Z,91.80
2022-10-29T12:23:30.103Z,91.70
2022-10-29T12:26:11.347Z,91.70
2022-10-29T12:29:04.339Z,91.70
2022-10-29T12:31:42.569Z,91.70
2022-10-29T12:34:32.183Z,91.70
2022-10-29T12:37:18.229Z,91.70
2022-10-29T12:39:49.500Z,91.70
2022-10-29T12:42:26.290Z,91.70
2022-10-29T12:45:12.142Z,91.80
2022-10-29T12:47:49.299Z,91.80
2022-10-29T12:50:50.281Z,91.80
2022-10-29T12:53:33.039Z,91.80
2022-10-29T12:56:00.465Z,91.90
2022-10-29T12:58:50.119Z,91.90
2022-10-29T13:01:38.286Z,91.80
2022-10-29T13:04:27.535Z,91.90
2022-10-29T13:06:59.951Z,91.80
2022-10-29T13:09:28.315Z,91.90
2022-10-29T13:12:01.415Z,91.80
2022-10-29T13:14:46.564Z,91.80
2022-10-29T13:17:36.629Z,91.90
2022-10-29T13:20:21.665Z,91.80
2022-10-29T13:22:57.545Z,91.90
2022-10-29T13:25:28.432Z,92.40
2022-10-29T13:27:56.031Z,92.30
2022-10-29T13:30:29.730Z,92.20
2022-10-29T13:32:57.337Z,92.20
2022-10-29T13:35:27.711Z,92.10
2022-10-29T13:37:55.523Z,92.10
2022-10-29T13:40:22.542Z,92.00
2022-10-29T13:43:05.550Z,92.00
2022-10-29T13:45:35.083Z,92.00
2022-10-29T13:48:32.830Z,92.30
2022-10-29T13:51:04.367Z,92.80
2022-10-29T13:53:40.027Z,92.60
2022-10-29T13:56:17.296Z,93.00
2022-10-29T13:58:45.728Z,92.70
2022-10-29T14:01:17.782Z,92.80
2022-10-29T14:03:51.012Z,92.70
2022-10-29T14:06:36.516Z,93.20
2022-10-29T14:09:44.198Z,93.00
2022-10-29T14:12:17.439Z,93.30
2022-10-29T14:15:02.697Z,93.50
2022-10-29T14:17:30.628Z,93.20
2022-10-29T14:19:57.900Z,93.30
2022-10-29T14:22:39.183Z,93.50
2022-10-29T14:25:25.043Z,93.10
2022-10-29T14:28:19.006Z,93.30
2022-10-29T14:30:47.815Z,93.50
2022-10-29T14:33:22.218Z,93.80
2022-10-29T14:35:49.562Z,93.70
2022-10-29T14:38:17.695Z,93.60
2022-10-29T14:40:46.527Z,94.00
2022-10-29T14:43:27.448Z,93.60
2022-10-29T14:45:57.584Z,93.60
2022-10-29T14:48:24.897Z,93.70
2022-10-29T14:50:56.663Z,93.90
2022-10-29T14:53:28.114Z,94.00
2022-10-29T14:55:55.835Z,93.90
2022-10-29T14:58:31.140Z,94.00
2022-10-29T15:01:05.957Z,94.10
2022-10-29T15:03:35.329Z,94.50
2022-10-29T15:06:14.876Z,94.40
2022-10-29T15:08:47.063Z,93.90
2022-10-29T15:11:34.345Z,93.60
2022-10-29T15:14:24.057Z,93.40
2022-10-29T15:16:51.439Z,93.30
2022-10-29T15:19:19.027Z,93.10
2022-10-29T15:21:46.477Z,93.10
2022-10-29T15:24:20.720Z,93.00
2022-10-29T15:26:54.989Z,92.90
2022-10-29T15:29:34.017Z,92.90
2022-10-29T15:32:01.938Z,92.90
2022-10-29T15:34:36.219Z,92.80
2022-10-29T15:37:26.469Z,92.80
2022-10-29T15:39:59.390Z,92.80
2022-10-29T15:42:34.881Z,92.70
2022-10-29T15:45:08.147Z,92.70
2022-10-29T15:47:40.837Z,92.60
2022-10-29T15:50:12.150Z,92.70
2022-10-29T15:52:45.566Z,92.60
2022-10-29T15:55:26.751Z,92.60
2022-10-29T15:58:11.001Z,92.60
2022-10-29T16:00:38.439Z,92.50
2022-10-29T16:03:22.033Z,92.50
2022-10-29T16:05:54.202Z,92.50
2022-10-29T16:08:27.866Z,92.40
2022-10-29T16:10:56.038Z,92.50
2022-10-29T16:13:24.982Z,92.40
2022-10-29T16:15:52.320Z,92.40
2022-10-29T16:18:19.595Z,92.40
2022-10-29T16:20:48.177Z,92.30
2022-10-29T16:23:15.833Z,92.50
2022-10-29T16:25:43.694Z,92.40
2022-10-29T16:28:11.128Z,92.30
2022-10-29T16:33:09.483Z,92.30
2022-10-29T16:35:36.682Z,92.40
2022-10-29T16:38:03.780Z,92.40
2022-10-29T16:40:30.921Z,92.30
2022-10-29T16:42:58.787Z,92.30
2022-10-29T16:45:30.082Z,92.30
2022-10-29T16:47:57.848Z,92.30
2022-10-29T16:50:30.678Z,92.30
2022-10-29T16:53:02.853Z,92.30
2022-10-29T16:55:30.368Z,92.30
2022-10-29T16:57:58.041Z,92.20
2022-10-29T17:00:31.711Z,92.20
2022-10-29T17:03:04.982Z,92.20
2022-10-29T17:05:38.685Z,92.20
2022-10-29T17:08:06.391Z,92.20
2022-10-29T17:10:34.374Z,92.20
2022-10-29T17:13:01.622Z,92.20
2022-10-29T17:15:28.814Z,92.20
2022-10-29T17:17:56.323Z,92.20
2022-10-29T17:20:23.591Z,92.50
2022-10-29T17:22:52.453Z,92.20
2022-10-29T17:25:20.440Z,92.10
2022-10-29T17:27:47.648Z,92.10
2022-10-29T17:30:14.802Z,92.10
2022-10-29T17:32:41.958Z,92.10
2022-10-29T17:35:09.542Z,92.10
2022-10-29T17:37:36.681Z,92.20
2022-10-29T17:40:07.077Z,92.10
2022-10-29T17:42:35.749Z,92.10
2022-10-29T17:45:02.893Z,92.10
2022-10-29T17:47:30.403Z,92.10
2022-10-29T17:49:57.602Z,92.10
2022-10-29T17:52:24.728Z,92.10
2022-10-29T17:54:51.960Z,92.10
2022-10-29T17:57:19.158Z,92.10
2022-10-29T17:59:46.315Z,92.00
2022-10-29T18:02:13.509Z,92.00
2022-10-29T18:04:40.779Z,92.00
2022-10-29T18:07:07.882Z,92.00
2022-10-29T18:09:35.067Z,92.30
2022-10-29T18:12:02.237Z,92.00
2022-10-29T18:14:29.399Z,92.00
2022-10-29T18:16:56.574Z,92.00
2022-10-29T18:19:23.963Z,92.00
2022-10-29T18:21:51.081Z,92.00
2022-10-29T18:24:19.513Z,92.00
2022-10-29T18:26:50.339Z,92.00
2022-10-29T18:29:17.532Z,92.00
2022-10-29T18:31:45.912Z,92.00
2022-10-29T18:34:15.270Z,92.00
2022-10-29T18:36:43.298Z,92.00
2022-10-29T18:39:10.490Z,92.00
2022-10-29T18:41:37.706Z,92.00
2022-10-29T18:44:05.262Z,91.90
2022-10-29T18:46:32.553Z,91.90
2022-10-29T18:49:00.855Z,91.90
2022-10-29T18:51:30.442Z,91.90
2022-10-29T18:53:58.542Z,91.90
2022-10-29T18:56:27.296Z,91.90
2022-10-29T18:58:57.984Z,91.90
2022-10-29T19:01:27.567Z,91.90
2022-10-29T19:03:57.161Z,91.90
2022-10-29T19:06:26.295Z,91.90
2022-10-29T19:08:53.937Z,91.90
2022-10-29T19:11:23.956Z,91.90
2022-10-29T19:14:02.395Z,91.90
2022-10-29T19:16:31.018Z,91.80
2022-10-29T19:19:06.849Z,91.90
2022-10-29T19:21:35.720Z,91.90
2022-10-29T19:24:03.690Z,91.90
2022-10-29T19:26:33.681Z,91.90
2022-10-29T19:29:02.776Z,91.90
2022-10-29T19:31:33.769Z,91.90
2022-10-29T19:34:03.167Z,91.90
2022-10-29T19:36:30.572Z,91.90
2022-10-29T19:38:58.200Z,91.80
2022-10-29T19:41:25.373Z,91.90
2022-10-29T19:43:52.875Z,91.90
2022-10-29T19:46:24.737Z,91.90
2022-10-29T19:48:54.143Z,91.90
2022-10-29T19:51:22.222Z,91.90
2022-10-29T19:53:53.370Z,91.90
2022-10-29T19:56:22.110Z,91.90
2022-10-29T19:58:49.749Z,91.90
2022-10-29T20:01:18.215Z,91.90
2022-10-29T20:03:46.349Z,91.90
2022-10-29T20:06:14.511Z,91.90
2022-10-29T20:08:42.253Z,91.90
2022-10-29T20:11:09.567Z,91.90
2022-10-29T20:13:37.998Z,91.90
2022-10-29T20:16:14.149Z,91.90
2022-10-29T20:18:41.328Z,91.90
2022-10-29T20:21:08.604Z,91.90
2022-10-29T20:23:36.107Z,91.90
2022-10-29T20:26:03.432Z,91.90
2022-10-29T20:28:30.550Z,91.90
2022-10-29T20:31:19.393Z,91.90
2022-10-29T20:33:50.176Z,91.90
2022-10-29T20:36:17.484Z,91.90
2022-10-29T20:38:50.540Z,91.80
2022-10-29T20:41:18.333Z,91.80
2022-10-29T20:43:45.890Z,91.80
2022-10-29T20:46:13.200Z,91.80
2022-10-29T20:48:40.310Z,91.80
2022-10-29T20:51:07.687Z,91.80
2022-10-29T20:53:34.812Z,91.80
2022-10-29T20:56:03.764Z,91.80
2022-10-29T20:58:30.903Z,91.80
2022-10-29T21:01:12.825Z,91.80
2022-10-29T21:03:40.318Z,91.80
2022-10-29T21:06:17.046Z,91.80
2022-10-29T21:08:48.326Z,91.80
2022-10-29T21:11:16.536Z,91.80
2022-10-29T21:13:43.884Z,91.80
2022-10-29T21:16:24.355Z,91.80
2022-10-29T21:18:54.012Z,91.80
2022-10-29T21:21:22.322Z,91.80
2022-10-29T21:23:49.721Z,91.80
2022-10-29T21:26:22.967Z,91.80
2022-10-29T21:28:51.347Z,91.80
2022-10-29T21:31:19.636Z,91.80
2022-10-29T21:33:50.458Z,91.80
2022-10-29T21:36:17.565Z,91.80
2022-10-29T21:38:44.777Z,91.80
2022-10-29T21:41:11.995Z,91.80
2022-10-29T21:43:39.417Z,91.80
2022-10-29T21:46:07.225Z,91.80
2022-10-29T21:48:34.796Z,91.80
2022-10-29T21:51:05.139Z,91.80
2022-10-29T21:53:32.818Z,91.80
2022-10-29T21:56:03.217Z,91.80
2022-10-29T21:58:30.845Z,91.80
2022-10-29T22:01:06.819Z,91.80
2022-10-29T22:03:35.166Z,91.80
2022-10-29T22:06:12.215Z,91.80
2022-10-29T22:08:42.649Z,91.80
2022-10-29T22:11:10.942Z,91.80
2022-10-29T22:13:38.862Z,91.80
2022-10-29T22:16:07.315Z,91.70
2022-10-29T22:18:35.215Z,91.70
2022-10-29T22:21:15.334Z,91.70
2022-10-29T22:23:46.854Z,91.70
2022-10-29T22:26:16.130Z,91.70
2022-10-29T22:28:44.587Z,91.70
2022-10-29T22:31:11.844Z,91.70
2022-10-29T22:33:39.583Z,91.70
2022-10-29T22:36:09.933Z,91.70
2022-10-29T22:38:37.597Z,91.70
2022-10-29T22:41:12.904Z,91.70
2022-10-29T22:43:40.842Z,91.70
2022-10-29T22:46:09.454Z,91.70
2022-10-29T22:48:36.650Z,91.70
2022-10-29T22:51:09.798Z,91.70
2022-10-29T22:53:40.324Z,91.70
2022-10-29T22:56:07.706Z,91.60
2022-10-29T22:58:34.807Z,91.70
2022-10-29T23:01:07.399Z,91.60
2022-10-29T23:03:34.704Z,91.70
2022-10-29T23:06:04.092Z,91.70
2022-10-29T23:08:34.700Z,91.70
2022-10-29T23:11:16.716Z,91.70
2022-10-29T23:13:45.778Z,91.70
2022-10-29T23:16:13.324Z,91.70
2022-10-29T23:18:40.533Z,91.70
2022-10-29T23:21:08.552Z,91.60
2022-10-29T23:23:36.792Z,91.70
2022-10-29T23:26:04.387Z,91.70
2022-10-29T23:28:34.266Z,91.70
2022-10-29T23:31:03.796Z,91.70
2022-10-29T23:33:32.405Z,91.70
2022-10-29T23:36:07.340Z,91.70
2022-10-29T23:38:35.106Z,91.70
2022-10-29T23:41:02.949Z,91.60
2022-10-29T23:43:30.446Z,91.70
2022-10-29T23:45:57.839Z,91.70
2022-10-29T23:48:25.141Z,91.70
2022-10-29T23:50:52.578Z,91.70
2022-10-29T23:53:20.011Z,91.60
2022-10-29T23:55:47.159Z,91.70
2022-10-29T23:58:15.194Z,91.70
